createdAt,value
2019-05-12T00:01:38.779Z,14.90
2019-05-12T00:06:42.039Z,14.90
2019-05-12T00:11:48.291Z,14.90
2019-05-12T00:16:51.546Z,14.80
2019-05-12T00:21:55.524Z,14.90
2019-05-12T00:27:03.418Z,14.80
2019-05-12T00:32:08.583Z,14.80
2019-05-12T00:37:12.668Z,14.80
2019-05-12T00:42:18.313Z,14.80
2019-05-12T00:47:22.113Z,14.70
2019-05-12T00:52:28.027Z,14.80
2019-05-12T00:57:31.622Z,14.80
2019-05-12T01:02:37.473Z,14.80
2019-05-12T01:07:41.130Z,14.80
2019-05-12T01:12:45.058Z,14.70
2019-05-12T01:17:49.043Z,14.80
2019-05-12T01:22:52.985Z,14.70
2019-05-12T01:27:58.815Z,14.70
2019-05-12T01:33:02.711Z,14.70
2019-05-12T01:38:08.004Z,14.70
2019-05-12T01:43:12.650Z,14.60
2019-05-12T01:48:18.317Z,14.60
2019-05-12T01:53:22.538Z,14.50
2019-05-12T01:58:27.872Z,14.50
2019-05-12T02:03:31.881Z,14.50
2019-05-12T02:08:43.387Z,14.50
2019-05-12T02:13:48.646Z,14.40
2019-05-12T02:18:52.760Z,14.50
2019-05-12T02:23:58.274Z,14.50
2019-05-12T02:29:02.222Z,14.40
2019-05-12T02:34:06.121Z,14.40
2019-05-12T02:39:09.980Z,14.30
2019-05-12T02:44:14.910Z,14.30
2019-05-12T02:49:19.134Z,14.30
2019-05-12T02:54:26.912Z,14.20
2019-05-12T02:59:30.744Z,14.20
2019-05-12T03:04:36.122Z,14.10
2019-05-12T03:09:40.722Z,14.00
2019-05-12T03:14:44.891Z,13.90
2019-05-12T03:19:48.955Z,13.90
2019-05-12T03:25:07.861Z,13.80
2019-05-12T03:29:58.445Z,13.70
2019-05-12T03:35:08.154Z,13.70
2019-05-12T03:40:08.668Z,13.60
2019-05-12T03:45:14.904Z,13.40
2019-05-12T03:50:18.332Z,13.30
2019-05-12T03:55:34.387Z,13.10
2019-05-12T04:00:27.831Z,13.10
2019-05-12T04:05:34.710Z,13.00
2019-05-12T04:10:37.287Z,13.00
2019-05-12T04:15:41.161Z,12.90
2019-05-12T04:20:45.392Z,12.70
2019-05-12T04:25:54.769Z,12.70
2019-05-12T04:30:54.928Z,12.60
2019-05-12T04:35:58.799Z,12.50
2019-05-12T04:41:05.563Z,12.40
2019-05-12T04:46:08.193Z,12.30
2019-05-12T04:51:15.181Z,12.20
2019-05-12T04:56:20.577Z,12.20
2019-05-12T05:01:25.306Z,12.20
2019-05-12T05:06:28.812Z,12.10
2019-05-12T05:11:34.529Z,12.10
2019-05-12T05:16:38.197Z,12.00
2019-05-12T05:21:43.738Z,12.00
2019-05-12T05:26:47.667Z,12.00
2019-05-12T05:31:53.428Z,12.00
2019-05-12T05:37:01.370Z,11.90
2019-05-12T05:42:04.523Z,11.90
2019-05-12T05:47:08.148Z,12.00
2019-05-12T05:52:13.726Z,11.90
2019-05-12T05:57:20.082Z,11.90
2019-05-12T06:02:44.128Z,11.80
2019-05-12T06:07:47.817Z,11.80
2019-05-12T06:12:51.734Z,11.80
2019-05-12T06:17:55.609Z,11.80
2019-05-12T06:22:59.513Z,11.80
2019-05-12T06:28:04.626Z,11.80
2019-05-12T06:33:08.970Z,11.70
2019-05-12T06:38:13.585Z,11.70
2019-05-12T06:43:17.628Z,11.70
2019-05-12T06:48:25.708Z,11.70
2019-05-12T06:53:30.962Z,11.80
2019-05-12T06:58:34.415Z,11.80
2019-05-12T07:03:38.152Z,11.70
2019-05-12T07:08:43.870Z,11.70
2019-05-12T07:14:01.008Z,11.60
2019-05-12T07:18:54.205Z,11.60
2019-05-12T07:24:00.559Z,11.60
2019-05-12T07:29:04.427Z,11.60
2019-05-12T07:34:08.476Z,11.60
2019-05-12T07:39:13.607Z,11.70
2019-05-12T07:44:22.206Z,11.60
2019-05-12T07:49:34.468Z,11.60
2019-05-12T07:54:35.341Z,11.60
2019-05-12T07:59:40.840Z,11.70
2019-05-12T08:04:44.019Z,11.70
2019-05-12T08:09:48.137Z,11.60
2019-05-12T08:14:54.058Z,11.70
2019-05-12T08:19:57.541Z,11.70
2019-05-12T08:25:04.031Z,11.70
2019-05-12T08:30:07.253Z,11.70
2019-05-12T08:35:13.730Z,11.70
2019-05-12T08:40:17.096Z,11.80
2019-05-12T08:45:25.133Z,11.80
2019-05-12T08:50:31.549Z,11.80
2019-05-12T08:55:35.304Z,11.80
2019-05-12T09:00:46.350Z,11.80
2019-05-12T09:05:45.771Z,11.90
2019-05-12T09:10:52.340Z,11.90
2019-05-12T09:15:55.466Z,11.90
2019-05-12T09:20:59.388Z,11.90
2019-05-12T09:26:04.111Z,12.00
2019-05-12T09:31:09.142Z,12.00
2019-05-12T09:36:19.936Z,12.00
2019-05-12T09:41:18.683Z,12.00
2019-05-12T09:46:23.402Z,12.10
2019-05-12T09:51:32.968Z,12.10
2019-05-12T09:56:34.414Z,12.20
2019-05-12T10:01:39.670Z,12.20
2019-05-12T10:06:44.430Z,12.20
2019-05-12T10:11:51.895Z,12.30
2019-05-12T10:16:53.986Z,12.30
2019-05-12T10:21:59.436Z,12.30
2019-05-12T10:27:03.933Z,12.30
2019-05-12T10:32:10.387Z,12.40
2019-05-12T10:37:13.602Z,12.40
2019-05-12T10:42:17.536Z,12.50
2019-05-12T10:47:23.791Z,12.60
2019-05-12T10:52:29.363Z,12.70
2019-05-12T10:57:33.440Z,12.70
2019-05-12T11:02:37.516Z,12.70
2019-05-12T11:07:43.582Z,12.70
2019-05-12T11:12:47.752Z,12.70
2019-05-12T11:17:53.454Z,12.70
2019-05-12T11:22:57.597Z,12.70
2019-05-12T11:28:03.690Z,12.80
2019-05-12T11:33:07.931Z,12.80
2019-05-12T11:38:13.557Z,12.80
2019-05-12T11:43:17.705Z,12.90
2019-05-12T11:48:23.575Z,12.90
2019-05-12T11:53:31.121Z,12.80
2019-05-12T11:58:33.547Z,12.70
2019-05-12T12:03:37.622Z,12.70
2019-05-12T12:08:53.925Z,12.70
2019-05-12T12:14:08.419Z,12.70
2019-05-12T12:19:07.001Z,12.70
2019-05-12T12:24:13.107Z,12.70
2019-05-12T12:29:16.518Z,12.70
2019-05-12T12:34:25.108Z,12.70
2019-05-12T12:39:27.076Z,12.60
2019-05-12T12:44:33.938Z,12.70
2019-05-12T12:49:40.039Z,12.70
2019-05-12T12:54:43.894Z,12.70
2019-05-12T12:59:51.235Z,12.70
2019-05-12T13:04:53.845Z,12.60
2019-05-12T13:10:07.379Z,12.60
2019-05-12T13:15:06.576Z,12.60
2019-05-12T13:20:10.890Z,12.60
2019-05-12T13:25:14.918Z,12.60
2019-05-12T13:30:21.141Z,12.70
2019-05-12T13:35:24.661Z,12.70
2019-05-12T13:40:29.770Z,12.80
2019-05-12T13:45:34.131Z,12.80
2019-05-12T13:50:38.093Z,12.80
2019-05-12T13:55:45.445Z,12.80
2019-05-12T14:01:09.226Z,12.70
2019-05-12T14:05:55.207Z,12.70
2019-05-12T14:10:59.902Z,12.70
2019-05-12T14:16:06.758Z,12.60
2019-05-12T14:21:09.661Z,12.60
2019-05-12T14:26:13.759Z,12.60
2019-05-12T14:31:29.353Z,12.60
2019-05-12T14:36:26.561Z,12.60
2019-05-12T14:41:28.902Z,12.60
2019-05-12T14:46:33.436Z,12.70
2019-05-12T14:51:38.582Z,12.70
2019-05-12T14:56:44.840Z,12.70
2019-05-12T15:01:57.407Z,12.70
2019-05-12T15:06:53.619Z,12.80
2019-05-12T15:11:57.558Z,13.00
2019-05-12T15:17:03.720Z,13.20
2019-05-12T15:22:11.830Z,13.30
2019-05-12T15:27:13.730Z,13.50
2019-05-12T15:32:18.023Z,13.60
2019-05-12T15:37:23.722Z,13.70
2019-05-12T15:42:27.459Z,13.80
2019-05-12T15:47:31.328Z,13.90
2019-05-12T15:52:42.303Z,14.20
2019-05-12T15:57:44.052Z,14.20
2019-05-12T16:02:47.956Z,14.30
2019-05-12T16:07:53.938Z,14.30
2019-05-12T16:12:57.550Z,14.30
2019-05-12T16:18:05.660Z,14.40
2019-05-12T16:23:07.224Z,14.40
2019-05-12T16:28:15.156Z,14.40
2019-05-12T16:33:20.928Z,14.30
2019-05-12T16:38:25.337Z,14.20
2019-05-12T16:43:34.418Z,14.00
2019-05-12T16:48:36.363Z,13.80
2019-05-12T16:53:40.464Z,13.70
2019-05-12T16:58:44.607Z,13.60
2019-05-12T17:03:48.508Z,13.50
2019-05-12T17:08:54.346Z,13.40
2019-05-12T17:14:04.672Z,13.30
2019-05-12T17:19:10.502Z,13.20
2019-05-12T17:24:14.457Z,13.20
2019-05-12T17:29:17.931Z,13.20
2019-05-12T17:34:23.540Z,13.10
2019-05-12T17:39:29.333Z,13.10
2019-05-12T17:44:36.792Z,13.00
2019-05-12T17:49:40.025Z,12.90
2019-05-12T17:54:43.941Z,12.90
2019-05-12T17:59:47.825Z,12.80
2019-05-12T18:04:53.458Z,12.70
2019-05-12T18:10:00.586Z,12.60
2019-05-12T18:15:04.268Z,12.60
2019-05-12T18:20:08.559Z,12.50
2019-05-12T18:25:14.630Z,12.40
2019-05-12T18:30:19.233Z,12.30
2019-05-12T18:35:23.363Z,12.20
2019-05-12T18:40:28.212Z,12.10
2019-05-12T18:45:34.111Z,12.10
2019-05-12T18:50:37.878Z,12.00
2019-05-12T18:55:44.206Z,12.00
2019-05-12T19:00:48.070Z,11.90
2019-05-12T19:05:54.173Z,11.80
2019-05-12T19:10:59.283Z,11.80
2019-05-12T19:16:07.110Z,11.70
2019-05-12T19:21:15.358Z,11.60
2019-05-12T19:26:15.873Z,11.50
2019-05-12T19:31:20.050Z,11.50
2019-05-12T19:36:27.054Z,11.40
2019-05-12T19:41:36.405Z,11.30
2019-05-12T19:46:39.966Z,11.30
2019-05-12T19:51:44.043Z,11.30
2019-05-12T19:56:49.645Z,11.30
2019-05-12T20:01:54.302Z,11.10
2019-05-12T20:06:58.416Z,11.10
2019-05-12T20:12:07.820Z,11.00
2019-05-12T20:17:08.412Z,11.00
2019-05-12T20:22:13.813Z,11.00
2019-05-12T20:27:21.917Z,11.00
2019-05-12T20:32:24.100Z,11.00
2019-05-12T20:37:28.793Z,11.00
2019-05-12T20:42:34.069Z,10.90
2019-05-12T20:47:45.018Z,10.90
2019-05-12T20:52:52.327Z,10.90
2019-05-12T20:57:54.406Z,10.90
2019-05-12T21:02:57.926Z,11.00
2019-05-12T21:08:08.943Z,11.00
2019-05-12T21:13:07.462Z,11.00
2019-05-12T21:18:11.753Z,10.90
2019-05-12T21:23:15.681Z,10.80
2019-05-12T21:28:19.565Z,10.80
2019-05-12T21:33:24.028Z,10.80
2019-05-12T21:38:29.745Z,10.80
2019-05-12T21:43:33.699Z,10.80
2019-05-12T21:48:37.582Z,10.80
2019-05-12T21:53:43.610Z,10.80
2019-05-12T21:58:53.856Z,10.80
2019-05-12T22:03:57.896Z,10.80
2019-05-12T22:09:01.299Z,10.80
2019-05-12T22:14:06.770Z,10.80
2019-05-12T22:19:10.898Z,10.90
2019-05-12T22:24:14.823Z,10.90
2019-05-12T22:29:21.179Z,10.80
2019-05-12T22:34:27.585Z,10.80
2019-05-12T22:39:33.859Z,10.80
2019-05-12T22:44:35.381Z,10.90
2019-05-12T22:49:39.299Z,10.90
2019-05-12T22:54:46.829Z,10.80
2019-05-12T22:59:48.808Z,10.80
2019-05-12T23:04:54.996Z,10.80
2019-05-12T23:10:00.664Z,10.80
2019-05-12T23:15:07.082Z,10.80
2019-05-12T23:20:10.867Z,10.80
2019-05-12T23:25:19.576Z,10.80
2019-05-12T23:30:20.628Z,10.80
2019-05-12T23:35:28.245Z,10.70
2019-05-12T23:40:30.102Z,10.80
2019-05-12T23:45:34.249Z,10.70
2019-05-12T23:50:38.184Z,10.70
2019-05-12T23:55:43.736Z,10.70
